sensor_id;sensor_type;location;lat;lon;timestamp;temperature;humidity
19945;DHT22;10134;50.952;6.930;2023-07-30T00:00:14;19.30;99.90
19945;DHT22;10134;50.952;6.930;2023-07-30T00:02:41;19.30;99.90
19945;DHT22;10134;50.952;6.930;2023-07-30T00:05:09;19.30;99.90
19945;DHT22;10134;50.952;6.930;2023-07-30T00:07:36;19.30;99.90
19945;DHT22;10134;50.952;6.930;2023-07-30T00:10:03;19.30;99.90
19945;DHT22;10134;50.952;6.930;2023-07-30T00:12:31;19.30;99.90
19945;DHT22;10134;50.952;6.930;2023-07-30T00:14:58;19.30;99.90
19945;DHT22;10134;50.952;6.930;2023-07-30T00:17:26;19.30;99.90
19945;DHT22;10134;50.952;6.930;2023-07-30T00:19:53;19.20;99.90
19945;DHT22;10134;50.952;6.930;2023-07-30T00:22:20;19.20;99.90
19945;DHT22;10134;50.952;6.930;2023-07-30T00:24:50;19.20;99.90
19945;DHT22;10134;50.952;6.930;2023-07-30T00:27:17;19.20;99.90
19945;DHT22;10134;50.952;6.930;2023-07-30T00:29:48;19.20;99.90
19945;DHT22;10134;50.952;6.930;2023-07-30T00:32:16;19.10;99.90
19945;DHT22;10134;50.952;6.930;2023-07-30T00:34:44;19.10;99.90
19945;DHT22;10134;50.952;6.930;2023-07-30T00:37:11;19.10;99.90
19945;DHT22;10134;50.952;6.930;2023-07-30T00:39:39;19.10;99.90
19945;DHT22;10134;50.952;6.930;2023-07-30T00:42:06;19.10;99.90
19945;DHT22;10134;50.952;6.930;2023-07-30T00:44:33;19.10;99.90
19945;DHT22;10134;50.952;6.930;2023-07-30T00:47:02;19.10;99.90
19945;DHT22;10134;50.952;6.930;2023-07-30T00:49:30;19.10;99.90
19945;DHT22;10134;50.952;6.930;2023-07-30T00:51:58;19.10;99.90
19945;DHT22;10134;50.952;6.930;2023-07-30T00:54:25;19.00;99.90
19945;DHT22;10134;50.952;6.930;2023-07-30T00:56:53;19.00;99.90
19945;DHT22;10134;50.952;6.930;2023-07-30T00:59:21;19.00;99.90
19945;DHT22;10134;50.952;6.930;2023-07-30T01:01:50;19.00;99.90
19945;DHT22;10134;50.952;6.930;2023-07-30T01:04:18;19.00;99.90
19945;DHT22;10134;50.952;6.930;2023-07-30T01:06:46;18.90;99.90
19945;DHT22;10134;50.952;6.930;2023-07-30T01:09:13;18.90;99.90
19945;DHT22;10134;50.952;6.930;2023-07-30T01:11:41;18.90;99.90
19945;DHT22;10134;50.952;6.930;2023-07-30T01:14:10;18.90;99.90
19945;DHT22;10134;50.952;6.930;2023-07-30T01:16:37;18.90;99.90
19945;DHT22;10134;50.952;6.930;2023-07-30T01:19:05;18.90;99.90
19945;DHT22;10134;50.952;6.930;2023-07-30T01:21:34;18.90;99.90
19945;DHT22;10134;50.952;6.930;2023-07-30T01:24:02;18.90;99.90
19945;DHT22;10134;50.952;6.930;2023-07-30T01:26:43;19.00;99.90
19945;DHT22;10134;50.952;6.930;2023-07-30T01:29:22;19.00;99.90
19945;DHT22;10134;50.952;6.930;2023-07-30T01:31:56;19.00;99.90
19945;DHT22;10134;50.952;6.930;2023-07-30T01:34:27;19.00;99.90
19945;DHT22;10134;50.952;6.930;2023-07-30T01:36:56;19.00;99.90
19945;DHT22;10134;50.952;6.930;2023-07-30T01:39:25;19.00;99.90
19945;DHT22;10134;50.952;6.930;2023-07-30T01:41:55;19.00;99.90
19945;DHT22;10134;50.952;6.930;2023-07-30T01:44:23;19.00;99.90
19945;DHT22;10134;50.952;6.930;2023-07-30T01:46:50;19.00;99.90
19945;DHT22;10134;50.952;6.930;2023-07-30T01:49:18;19.00;99.90
19945;DHT22;10134;50.952;6.930;2023-07-30T01:51:45;19.00;99.90
19945;DHT22;10134;50.952;6.930;2023-07-30T01:54:13;19.00;99.90
19945;DHT22;10134;50.952;6.930;2023-07-30T01:56:40;19.00;99.90
19945;DHT22;10134;50.952;6.930;2023-07-30T01:59:07;19.10;99.90
19945;DHT22;10134;50.952;6.930;2023-07-30T02:01:35;19.00;99.90
19945;DHT22;10134;50.952;6.930;2023-07-30T02:04:03;19.00;99.90
19945;DHT22;10134;50.952;6.930;2023-07-30T02:06:30;19.10;99.90
19945;DHT22;10134;50.952;6.930;2023-07-30T02:08:58;19.10;99.90
19945;DHT22;10134;50.952;6.930;2023-07-30T02:11:25;19.10;99.90
19945;DHT22;10134;50.952;6.930;2023-07-30T02:13:52;19.10;99.90
19945;DHT22;10134;50.952;6.930;2023-07-30T02:16:20;19.10;99.90
19945;DHT22;10134;50.952;6.930;2023-07-30T02:18:47;19.10;99.90
19945;DHT22;10134;50.952;6.930;2023-07-30T02:21:15;19.10;99.90
19945;DHT22;10134;50.952;6.930;2023-07-30T02:23:42;19.10;99.90
19945;DHT22;10134;50.952;6.930;2023-07-30T02:26:09;19.10;99.90
19945;DHT22;10134;50.952;6.930;2023-07-30T02:28:37;19.10;99.90
19945;DHT22;10134;50.952;6.930;2023-07-30T02:31:04;19.10;99.90
19945;DHT22;10134;50.952;6.930;2023-07-30T02:33:31;19.10;99.90
19945;DHT22;10134;50.952;6.930;2023-07-30T02:35:59;19.00;99.90
19945;DHT22;10134;50.952;6.930;2023-07-30T02:38:26;19.00;99.90
19945;DHT22;10134;50.952;6.930;2023-07-30T02:40:53;19.00;99.90
19945;DHT22;10134;50.952;6.930;2023-07-30T02:43:20;19.00;99.90
19945;DHT22;10134;50.952;6.930;2023-07-30T02:45:48;19.00;99.90
19945;DHT22;10134;50.952;6.930;2023-07-30T02:48:16;19.00;99.90
19945;DHT22;10134;50.952;6.930;2023-07-30T02:50:44;19.00;99.90
19945;DHT22;10134;50.952;6.930;2023-07-30T02:53:11;19.00;99.90
19945;DHT22;10134;50.952;6.930;2023-07-30T02:55:39;19.00;99.90
19945;DHT22;10134;50.952;6.930;2023-07-30T02:58:06;18.90;99.90
19945;DHT22;10134;50.952;6.930;2023-07-30T03:00:33;18.90;99.90
19945;DHT22;10134;50.952;6.930;2023-07-30T03:03:01;18.90;99.90
19945;DHT22;10134;50.952;6.930;2023-07-30T03:05:28;18.90;99.90
19945;DHT22;10134;50.952;6.930;2023-07-30T03:08:06;18.90;99.90
19945;DHT22;10134;50.952;6.930;2023-07-30T03:10:35;18.90;99.90
19945;DHT22;10134;50.952;6.930;2023-07-30T03:13:03;18.90;99.90
19945;DHT22;10134;50.952;6.930;2023-07-30T03:15:30;18.90;99.90
19945;DHT22;10134;50.952;6.930;2023-07-30T03:17:58;18.90;99.90
19945;DHT22;10134;50.952;6.930;2023-07-30T03:20:25;18.90;99.90
19945;DHT22;10134;50.952;6.930;2023-07-30T03:22:52;18.90;99.90
19945;DHT22;10134;50.952;6.930;2023-07-30T03:25:19;18.90;99.90
19945;DHT22;10134;50.952;6.930;2023-07-30T03:27:48;18.90;99.90
19945;DHT22;10134;50.952;6.930;2023-07-30T03:30:16;18.90;99.90
19945;DHT22;10134;50.952;6.930;2023-07-30T03:32:43;18.90;99.90
19945;DHT22;10134;50.952;6.930;2023-07-30T03:35:10;18.90;99.90
19945;DHT22;10134;50.952;6.930;2023-07-30T03:37:38;18.90;99.90
19945;DHT22;10134;50.952;6.930;2023-07-30T03:40:05;18.90;99.90
19945;DHT22;10134;50.952;6.930;2023-07-30T03:42:33;18.90;99.90
19945;DHT22;10134;50.952;6.930;2023-07-30T03:45:00;18.90;99.90
19945;DHT22;10134;50.952;6.930;2023-07-30T03:47:28;18.90;99.90
19945;DHT22;10134;50.952;6.930;2023-07-30T03:49:55;18.90;99.90
19945;DHT22;10134;50.952;6.930;2023-07-30T03:52:22;18.90;99.90
19945;DHT22;10134;50.952;6.930;2023-07-30T03:54:49;18.80;99.90
19945;DHT22;10134;50.952;6.930;2023-07-30T03:57:17;18.80;99.90
19945;DHT22;10134;50.952;6.930;2023-07-30T03:59:44;18.80;99.90
19945;DHT22;10134;50.952;6.930;2023-07-30T04:02:11;18.80;99.90
19945;DHT22;10134;50.952;6.930;2023-07-30T04:04:43;18.80;99.90
19945;DHT22;10134;50.952;6.930;2023-07-30T04:07:15;18.80;99.90
19945;DHT22;10134;50.952;6.930;2023-07-30T04:09:43;18.70;99.90
19945;DHT22;10134;50.952;6.930;2023-07-30T04:12:10;18.70;99.90
19945;DHT22;10134;50.952;6.930;2023-07-30T04:14:37;18.70;99.90
19945;DHT22;10134;50.952;6.930;2023-07-30T04:17:05;18.70;99.90
19945;DHT22;10134;50.952;6.930;2023-07-30T04:19:32;18.70;99.90
19945;DHT22;10134;50.952;6.930;2023-07-30T04:21:59;18.70;99.90
19945;DHT22;10134;50.952;6.930;2023-07-30T04:24:27;18.70;99.90
19945;DHT22;10134;50.952;6.930;2023-07-30T04:26:54;18.70;99.90
19945;DHT22;10134;50.952;6.930;2023-07-30T04:29:22;18.70;99.90
19945;DHT22;10134;50.952;6.930;2023-07-30T04:31:50;18.70;99.90
19945;DHT22;10134;50.952;6.930;2023-07-30T04:34:17;18.70;99.90
19945;DHT22;10134;50.952;6.930;2023-07-30T04:36:45;18.70;99.90
19945;DHT22;10134;50.952;6.930;2023-07-30T04:39:12;18.70;99.90
19945;DHT22;10134;50.952;6.930;2023-07-30T04:41:40;18.70;99.90
19945;DHT22;10134;50.952;6.930;2023-07-30T04:44:08;18.70;99.90
19945;DHT22;10134;50.952;6.930;2023-07-30T04:46:35;18.70;99.90
19945;DHT22;10134;50.952;6.930;2023-07-30T04:49:03;18.70;99.90
19945;DHT22;10134;50.952;6.930;2023-07-30T04:51:33;18.70;99.90
19945;DHT22;10134;50.952;6.930;2023-07-30T04:54:00;18.70;99.90
19945;DHT22;10134;50.952;6.930;2023-07-30T04:56:28;18.70;99.90
19945;DHT22;10134;50.952;6.930;2023-07-30T04:58:55;18.60;99.90
19945;DHT22;10134;50.952;6.930;2023-07-30T05:01:24;18.60;99.90
19945;DHT22;10134;50.952;6.930;2023-07-30T05:03:51;18.60;99.90
19945;DHT22;10134;50.952;6.930;2023-07-30T05:06:19;18.60;99.90
19945;DHT22;10134;50.952;6.930;2023-07-30T05:08:46;18.60;99.90
19945;DHT22;10134;50.952;6.930;2023-07-30T05:11:13;18.60;99.90
19945;DHT22;10134;50.952;6.930;2023-07-30T05:13:40;18.60;99.90
19945;DHT22;10134;50.952;6.930;2023-07-30T05:16:08;18.60;99.90
19945;DHT22;10134;50.952;6.930;2023-07-30T05:18:35;18.50;99.90
19945;DHT22;10134;50.952;6.930;2023-07-30T05:21:02;18.50;99.90
19945;DHT22;10134;50.952;6.930;2023-07-30T05:23:30;18.50;99.90
19945;DHT22;10134;50.952;6.930;2023-07-30T05:25:57;18.50;99.90
19945;DHT22;10134;50.952;6.930;2023-07-30T05:28:25;18.50;99.90
19945;DHT22;10134;50.952;6.930;2023-07-30T05:30:53;18.50;99.90
19945;DHT22;10134;50.952;6.930;2023-07-30T05:33:20;18.50;99.90
19945;DHT22;10134;50.952;6.930;2023-07-30T05:35:47;18.50;99.90
19945;DHT22;10134;50.952;6.930;2023-07-30T05:38:15;18.50;99.90
19945;DHT22;10134;50.952;6.930;2023-07-30T05:40:42;18.50;99.90
19945;DHT22;10134;50.952;6.930;2023-07-30T05:43:09;18.50;99.90
19945;DHT22;10134;50.952;6.930;2023-07-30T05:45:37;18.50;99.90
19945;DHT22;10134;50.952;6.930;2023-07-30T05:48:04;18.50;99.90
19945;DHT22;10134;50.952;6.930;2023-07-30T05:50:32;18.50;99.90
19945;DHT22;10134;50.952;6.930;2023-07-30T05:52:59;18.50;99.90
19945;DHT22;10134;50.952;6.930;2023-07-30T05:55:26;18.50;99.90
19945;DHT22;10134;50.952;6.930;2023-07-30T05:57:54;18.50;99.90
19945;DHT22;10134;50.952;6.930;2023-07-30T06:00:22;18.50;99.90
19945;DHT22;10134;50.952;6.930;2023-07-30T06:02:49;18.50;99.90
19945;DHT22;10134;50.952;6.930;2023-07-30T06:05:17;18.50;99.90
19945;DHT22;10134;50.952;6.930;2023-07-30T06:07:44;18.50;99.90
19945;DHT22;10134;50.952;6.930;2023-07-30T06:10:12;18.50;99.90
19945;DHT22;10134;50.952;6.930;2023-07-30T06:12:39;18.50;99.90
19945;DHT22;10134;50.952;6.930;2023-07-30T06:15:08;18.60;99.90
19945;DHT22;10134;50.952;6.930;2023-07-30T06:17:36;18.60;99.90
19945;DHT22;10134;50.952;6.930;2023-07-30T06:20:03;18.70;99.90
19945;DHT22;10134;50.952;6.930;2023-07-30T06:22:30;18.70;99.90
19945;DHT22;10134;50.952;6.930;2023-07-30T06:24:58;18.70;99.90
19945;DHT22;10134;50.952;6.930;2023-07-30T06:27:25;18.70;99.90
19945;DHT22;10134;50.952;6.930;2023-07-30T06:29:52;18.70;99.90
19945;DHT22;10134;50.952;6.930;2023-07-30T06:32:19;18.70;99.90
19945;DHT22;10134;50.952;6.930;2023-07-30T06:34:47;18.70;99.90
19945;DHT22;10134;50.952;6.930;2023-07-30T06:37:14;18.70;99.90
19945;DHT22;10134;50.952;6.930;2023-07-30T06:39:42;18.70;99.90
19945;DHT22;10134;50.952;6.930;2023-07-30T06:42:09;18.80;99.90
19945;DHT22;10134;50.952;6.930;2023-07-30T06:44:36;18.80;99.90
19945;DHT22;10134;50.952;6.930;2023-07-30T06:47:04;18.80;99.90
19945;DHT22;10134;50.952;6.930;2023-07-30T06:49:31;18.80;99.90
19945;DHT22;10134;50.952;6.930;2023-07-30T06:52:01;18.80;99.90
19945;DHT22;10134;50.952;6.930;2023-07-30T06:54:30;18.80;99.90
19945;DHT22;10134;50.952;6.930;2023-07-30T06:56:57;18.80;99.90
19945;DHT22;10134;50.952;6.930;2023-07-30T06:59:24;18.80;99.90
19945;DHT22;10134;50.952;6.930;2023-07-30T07:01:52;18.80;99.90
19945;DHT22;10134;50.952;6.930;2023-07-30T07:04:19;18.80;99.90
19945;DHT22;10134;50.952;6.930;2023-07-30T07:06:47;18.80;99.90
19945;DHT22;10134;50.952;6.930;2023-07-30T07:09:14;18.80;99.90
19945;DHT22;10134;50.952;6.930;2023-07-30T07:11:41;18.90;99.90
19945;DHT22;10134;50.952;6.930;2023-07-30T07:14:08;18.90;99.90
19945;DHT22;10134;50.952;6.930;2023-07-30T07:16:36;18.90;99.90
19945;DHT22;10134;50.952;6.930;2023-07-30T07:19:03;18.90;99.90
19945;DHT22;10134;50.952;6.930;2023-07-30T07:21:30;18.90;99.90
19945;DHT22;10134;50.952;6.930;2023-07-30T07:23:58;19.00;99.90
19945;DHT22;10134;50.952;6.930;2023-07-30T07:26:25;19.00;99.90
19945;DHT22;10134;50.952;6.930;2023-07-30T07:28:52;19.00;99.90
19945;DHT22;10134;50.952;6.930;2023-07-30T07:31:22;19.10;99.90
19945;DHT22;10134;50.952;6.930;2023-07-30T07:33:49;19.10;99.90
19945;DHT22;10134;50.952;6.930;2023-07-30T07:36:17;19.10;99.90
19945;DHT22;10134;50.952;6.930;2023-07-30T07:38:44;19.20;99.90
19945;DHT22;10134;50.952;6.930;2023-07-30T07:41:18;19.20;99.90
19945;DHT22;10134;50.952;6.930;2023-07-30T07:43:46;19.20;99.90
19945;DHT22;10134;50.952;6.930;2023-07-30T07:46:14;19.30;99.90
19945;DHT22;10134;50.952;6.930;2023-07-30T07:48:42;19.30;99.90
19945;DHT22;10134;50.952;6.930;2023-07-30T07:51:11;19.30;99.90
19945;DHT22;10134;50.952;6.930;2023-07-30T07:53:38;19.30;99.90
19945;DHT22;10134;50.952;6.930;2023-07-30T07:56:06;19.30;99.90
19945;DHT22;10134;50.952;6.930;2023-07-30T07:58:33;19.40;99.90
19945;DHT22;10134;50.952;6.930;2023-07-30T08:01:02;19.40;99.90
19945;DHT22;10134;50.952;6.930;2023-07-30T08:03:30;19.40;99.90
19945;DHT22;10134;50.952;6.930;2023-07-30T08:05:57;19.40;99.90
19945;DHT22;10134;50.952;6.930;2023-07-30T08:08:28;19.50;99.90
19945;DHT22;10134;50.952;6.930;2023-07-30T08:10:55;19.50;99.90
19945;DHT22;10134;50.952;6.930;2023-07-30T08:13:22;19.50;99.90
19945;DHT22;10134;50.952;6.930;2023-07-30T08:15:50;19.60;99.90
19945;DHT22;10134;50.952;6.930;2023-07-30T08:18:17;19.60;99.90
19945;DHT22;10134;50.952;6.930;2023-07-30T08:20:44;19.60;99.90
19945;DHT22;10134;50.952;6.930;2023-07-30T08:23:12;19.70;99.90
19945;DHT22;10134;50.952;6.930;2023-07-30T08:25:39;19.70;99.90
19945;DHT22;10134;50.952;6.930;2023-07-30T08:28:07;19.70;99.90
19945;DHT22;10134;50.952;6.930;2023-07-30T08:30:34;19.70;99.90
19945;DHT22;10134;50.952;6.930;2023-07-30T08:33:01;19.70;99.90
19945;DHT22;10134;50.952;6.930;2023-07-30T08:35:29;19.70;99.90
19945;DHT22;10134;50.952;6.930;2023-07-30T08:37:56;19.70;99.90
19945;DHT22;10134;50.952;6.930;2023-07-30T08:40:24;19.70;99.90
19945;DHT22;10134;50.952;6.930;2023-07-30T08:42:52;19.70;99.90
19945;DHT22;10134;50.952;6.930;2023-07-30T08:45:20;19.70;99.90
19945;DHT22;10134;50.952;6.930;2023-07-30T08:47:47;19.70;99.90
19945;DHT22;10134;50.952;6.930;2023-07-30T08:50:15;19.70;99.90
19945;DHT22;10134;50.952;6.930;2023-07-30T08:52:42;19.70;99.90
19945;DHT22;10134;50.952;6.930;2023-07-30T08:55:10;19.70;99.90
19945;DHT22;10134;50.952;6.930;2023-07-30T08:57:39;19.70;99.90
19945;DHT22;10134;50.952;6.930;2023-07-30T09:00:11;19.80;99.90
19945;DHT22;10134;50.952;6.930;2023-07-30T09:02:47;19.80;99.90
19945;DHT22;10134;50.952;6.930;2023-07-30T09:05:15;19.80;99.90
19945;DHT22;10134;50.952;6.930;2023-07-30T09:07:43;19.80;99.90
19945;DHT22;10134;50.952;6.930;2023-07-30T09:10:10;19.90;99.90
19945;DHT22;10134;50.952;6.930;2023-07-30T09:12:37;19.90;99.90
19945;DHT22;10134;50.952;6.930;2023-07-30T09:15:06;20.00;99.90
19945;DHT22;10134;50.952;6.930;2023-07-30T09:17:34;20.00;99.90
19945;DHT22;10134;50.952;6.930;2023-07-30T09:20:03;20.10;99.90
19945;DHT22;10134;50.952;6.930;2023-07-30T09:22:32;20.10;99.90
19945;DHT22;10134;50.952;6.930;2023-07-30T09:25:06;20.20;99.90
19945;DHT22;10134;50.952;6.930;2023-07-30T09:27:34;20.30;99.90
19945;DHT22;10134;50.952;6.930;2023-07-30T09:30:03;20.30;99.90
19945;DHT22;10134;50.952;6.930;2023-07-30T09:32:33;20.30;99.90
19945;DHT22;10134;50.952;6.930;2023-07-30T09:35:09;20.30;99.90
19945;DHT22;10134;50.952;6.930;2023-07-30T09:37:38;20.30;99.90
19945;DHT22;10134;50.952;6.930;2023-07-30T09:40:11;20.40;99.90
19945;DHT22;10134;50.952;6.930;2023-07-30T09:42:43;20.30;99.90
19945;DHT22;10134;50.952;6.930;2023-07-30T09:45:22;20.30;99.90
19945;DHT22;10134;50.952;6.930;2023-07-30T09:47:52;20.30;99.90
19945;DHT22;10134;50.952;6.930;2023-07-30T09:50:20;20.30;99.90
19945;DHT22;10134;50.952;6.930;2023-07-30T09:52:48;20.30;99.90
19945;DHT22;10134;50.952;6.930;2023-07-30T09:55:16;20.30;99.90
19945;DHT22;10134;50.952;6.930;2023-07-30T09:57:46;20.40;99.90
19945;DHT22;10134;50.952;6.930;2023-07-30T10:00:14;20.40;99.90
19945;DHT22;10134;50.952;6.930;2023-07-30T10:02:45;20.50;99.90
19945;DHT22;10134;50.952;6.930;2023-07-30T10:05:18;20.50;99.90
19945;DHT22;10134;50.952;6.930;2023-07-30T10:07:54;20.50;99.90
19945;DHT22;10134;50.952;6.930;2023-07-30T10:10:24;20.50;99.90
19945;DHT22;10134;50.952;6.930;2023-07-30T10:12:53;20.50;99.90
19945;DHT22;10134;50.952;6.930;2023-07-30T10:15:22;20.50;99.90
19945;DHT22;10134;50.952;6.930;2023-07-30T10:17:56;20.50;99.90
19945;DHT22;10134;50.952;6.930;2023-07-30T10:20:27;20.50;99.90
19945;DHT22;10134;50.952;6.930;2023-07-30T10:22:58;20.50;99.90
19945;DHT22;10134;50.952;6.930;2023-07-30T10:28:05;20.50;99.90
19945;DHT22;10134;50.952;6.930;2023-07-30T10:30:33;20.50;99.90
19945;DHT22;10134;50.952;6.930;2023-07-30T10:33:04;20.60;99.90
19945;DHT22;10134;50.952;6.930;2023-07-30T10:35:46;20.60;99.90
19945;DHT22;10134;50.952;6.930;2023-07-30T10:38:28;20.60;99.90
19945;DHT22;10134;50.952;6.930;2023-07-30T10:41:15;20.70;99.90
19945;DHT22;10134;50.952;6.930;2023-07-30T10:43:50;20.70;99.90
19945;DHT22;10134;50.952;6.930;2023-07-30T10:46:18;20.80;99.90
19945;DHT22;10134;50.952;6.930;2023-07-30T10:48:47;20.90;99.90
19945;DHT22;10134;50.952;6.930;2023-07-30T10:51:16;21.00;99.90
19945;DHT22;10134;50.952;6.930;2023-07-30T10:53:49;21.00;99.90
19945;DHT22;10134;50.952;6.930;2023-07-30T10:56:22;21.10;99.90
19945;DHT22;10134;50.952;6.930;2023-07-30T10:58:52;21.10;99.90
19945;DHT22;10134;50.952;6.930;2023-07-30T11:01:19;21.20;99.90
19945;DHT22;10134;50.952;6.930;2023-07-30T11:03:50;21.20;99.90
19945;DHT22;10134;50.952;6.930;2023-07-30T11:06:26;21.20;99.90
19945;DHT22;10134;50.952;6.930;2023-07-30T11:08:54;21.20;99.90
19945;DHT22;10134;50.952;6.930;2023-07-30T11:11:21;21.30;99.90
19945;DHT22;10134;50.952;6.930;2023-07-30T11:13:51;21.30;99.90
19945;DHT22;10134;50.952;6.930;2023-07-30T11:16:19;21.30;99.90
19945;DHT22;10134;50.952;6.930;2023-07-30T11:18:46;21.40;99.90
19945;DHT22;10134;50.952;6.930;2023-07-30T11:21:16;21.40;99.90
19945;DHT22;10134;50.952;6.930;2023-07-30T11:23:45;21.50;99.90
19945;DHT22;10134;50.952;6.930;2023-07-30T11:26:17;21.50;99.90
19945;DHT22;10134;50.952;6.930;2023-07-30T11:28:46;21.60;99.90
19945;DHT22;10134;50.952;6.930;2023-07-30T11:31:14;21.60;99.90
19945;DHT22;10134;50.952;6.930;2023-07-30T11:33:44;21.60;99.90
19945;DHT22;10134;50.952;6.930;2023-07-30T11:36:17;21.70;99.90
19945;DHT22;10134;50.952;6.930;2023-07-30T11:38:46;21.70;99.90
19945;DHT22;10134;50.952;6.930;2023-07-30T11:41:14;21.80;99.90
19945;DHT22;10134;50.952;6.930;2023-07-30T11:43:43;21.80;99.90
19945;DHT22;10134;50.952;6.930;2023-07-30T11:46:15;21.80;99.90
19945;DHT22;10134;50.952;6.930;2023-07-30T11:48:48;21.80;99.90
19945;DHT22;10134;50.952;6.930;2023-07-30T11:51:24;21.80;99.80
19945;DHT22;10134;50.952;6.930;2023-07-30T11:53:57;21.80;99.40
19945;DHT22;10134;50.952;6.930;2023-07-30T11:56:27;21.80;99.40
19945;DHT22;10134;50.952;6.930;2023-07-30T11:59:07;21.80;99.30
19945;DHT22;10134;50.952;6.930;2023-07-30T12:01:36;21.80;99.40
19945;DHT22;10134;50.952;6.930;2023-07-30T12:04:05;21.80;99.50
19945;DHT22;10134;50.952;6.930;2023-07-30T12:06:45;21.80;99.50
19945;DHT22;10134;50.952;6.930;2023-07-30T12:09:20;21.80;99.60
19945;DHT22;10134;50.952;6.930;2023-07-30T12:11:58;21.80;99.80
19945;DHT22;10134;50.952;6.930;2023-07-30T12:14:43;21.80;99.90
19945;DHT22;10134;50.952;6.930;2023-07-30T12:17:10;21.80;99.90
19945;DHT22;10134;50.952;6.930;2023-07-30T12:19:37;21.80;99.90
19945;DHT22;10134;50.952;6.930;2023-07-30T12:22:05;21.80;99.90
19945;DHT22;10134;50.952;6.930;2023-07-30T12:24:32;21.80;99.80
19945;DHT22;10134;50.952;6.930;2023-07-30T12:26:59;21.80;99.90
19945;DHT22;10134;50.952;6.930;2023-07-30T12:29:27;21.80;99.90
19945;DHT22;10134;50.952;6.930;2023-07-30T12:31:55;21.80;99.90
19945;DHT22;10134;50.952;6.930;2023-07-30T12:34:24;21.90;99.90
19945;DHT22;10134;50.952;6.930;2023-07-30T12:36:51;21.90;99.90
19945;DHT22;10134;50.952;6.930;2023-07-30T12:39:18;21.90;99.90
19945;DHT22;10134;50.952;6.930;2023-07-30T12:41:46;21.90;99.90
19945;DHT22;10134;50.952;6.930;2023-07-30T12:44:13;22.00;99.90
19945;DHT22;10134;50.952;6.930;2023-07-30T12:46:40;22.00;99.90
19945;DHT22;10134;50.952;6.930;2023-07-30T12:49:07;22.10;99.90
19945;DHT22;10134;50.952;6.930;2023-07-30T12:51:35;22.10;99.90
19945;DHT22;10134;50.952;6.930;2023-07-30T12:54:03;22.10;99.90
19945;DHT22;10134;50.952;6.930;2023-07-30T12:56:30;22.20;99.90
19945;DHT22;10134;50.952;6.930;2023-07-30T12:58:57;22.20;99.90
19945;DHT22;10134;50.952;6.930;2023-07-30T13:01:25;22.20;99.90
19945;DHT22;10134;50.952;6.930;2023-07-30T13:03:52;22.30;99.90
19945;DHT22;10134;50.952;6.930;2023-07-30T13:06:21;22.40;99.90
19945;DHT22;10134;50.952;6.930;2023-07-30T13:08:49;22.50;99.90
19945;DHT22;10134;50.952;6.930;2023-07-30T13:11:17;22.50;99.90
19945;DHT22;10134;50.952;6.930;2023-07-30T13:13:44;22.60;99.90
19945;DHT22;10134;50.952;6.930;2023-07-30T13:16:11;22.60;99.90
19945;DHT22;10134;50.952;6.930;2023-07-30T13:18:38;22.70;99.90
19945;DHT22;10134;50.952;6.930;2023-07-30T13:21:06;22.70;99.90
19945;DHT22;10134;50.952;6.930;2023-07-30T13:23:33;22.70;99.90
19945;DHT22;10134;50.952;6.930;2023-07-30T13:26:00;22.70;99.90
19945;DHT22;10134;50.952;6.930;2023-07-30T13:28:28;22.70;99.90
19945;DHT22;10134;50.952;6.930;2023-07-30T13:30:56;22.80;99.90
19945;DHT22;10134;50.952;6.930;2023-07-30T13:33:25;22.80;99.90
19945;DHT22;10134;50.952;6.930;2023-07-30T13:35:52;22.90;99.90
19945;DHT22;10134;50.952;6.930;2023-07-30T13:38:19;22.90;99.90
19945;DHT22;10134;50.952;6.930;2023-07-30T13:40:48;23.00;99.90
19945;DHT22;10134;50.952;6.930;2023-07-30T13:43:16;23.00;99.90
19945;DHT22;10134;50.952;6.930;2023-07-30T13:45:43;23.10;99.90
19945;DHT22;10134;50.952;6.930;2023-07-30T13:48:10;23.20;99.60
19945;DHT22;10134;50.952;6.930;2023-07-30T13:50:38;23.30;99.00
19945;DHT22;10134;50.952;6.930;2023-07-30T13:53:05;23.40;98.60
19945;DHT22;10134;50.952;6.930;2023-07-30T13:55:32;23.50;98.50
19945;DHT22;10134;50.952;6.930;2023-07-30T13:58:00;23.60;98.40
19945;DHT22;10134;50.952;6.930;2023-07-30T14:00:27;23.70;97.00
19945;DHT22;10134;50.952;6.930;2023-07-30T14:02:54;23.80;96.80
19945;DHT22;10134;50.952;6.930;2023-07-30T14:05:22;23.90;96.10
19945;DHT22;10134;50.952;6.930;2023-07-30T14:07:50;24.00;95.70
19945;DHT22;10134;50.952;6.930;2023-07-30T14:10:20;24.00;94.70
19945;DHT22;10134;50.952;6.930;2023-07-30T14:12:48;24.00;93.80
19945;DHT22;10134;50.952;6.930;2023-07-30T14:15:16;24.00;93.90
19945;DHT22;10134;50.952;6.930;2023-07-30T14:17:43;24.00;94.30
19945;DHT22;10134;50.952;6.930;2023-07-30T14:20:11;24.00;94.20
19945;DHT22;10134;50.952;6.930;2023-07-30T14:22:38;24.10;94.10
19945;DHT22;10134;50.952;6.930;2023-07-30T14:25:06;24.10;93.80
19945;DHT22;10134;50.952;6.930;2023-07-30T14:27:33;24.30;92.70
19945;DHT22;10134;50.952;6.930;2023-07-30T14:30:01;24.40;91.60
19945;DHT22;10134;50.952;6.930;2023-07-30T14:32:28;24.50;91.10
19945;DHT22;10134;50.952;6.930;2023-07-30T14:34:55;24.60;90.90
19945;DHT22;10134;50.952;6.930;2023-07-30T14:37:23;24.70;90.70
19945;DHT22;10134;50.952;6.930;2023-07-30T14:39:50;24.80;90.80
19945;DHT22;10134;50.952;6.930;2023-07-30T14:42:17;24.90;90.80
19945;DHT22;10134;50.952;6.930;2023-07-30T14:44:45;25.00;90.70
19945;DHT22;10134;50.952;6.930;2023-07-30T14:47:12;25.10;90.00
19945;DHT22;10134;50.952;6.930;2023-07-30T14:49:40;25.30;89.30
19945;DHT22;10134;50.952;6.930;2023-07-30T14:52:08;25.30;87.70
19945;DHT22;10134;50.952;6.930;2023-07-30T14:54:35;25.40;87.10
19945;DHT22;10134;50.952;6.930;2023-07-30T14:57:02;25.40;87.20
19945;DHT22;10134;50.952;6.930;2023-07-30T14:59:30;25.30;86.80
19945;DHT22;10134;50.952;6.930;2023-07-30T15:01:57;25.40;87.40
19945;DHT22;10134;50.952;6.930;2023-07-30T15:04:24;25.40;87.60
19945;DHT22;10134;50.952;6.930;2023-07-30T15:06:52;25.40;87.20
19945;DHT22;10134;50.952;6.930;2023-07-30T15:09:19;25.30;86.70
19945;DHT22;10134;50.952;6.930;2023-07-30T15:11:46;25.30;86.40
19945;DHT22;10134;50.952;6.930;2023-07-30T15:14:14;25.30;86.30
19945;DHT22;10134;50.952;6.930;2023-07-30T15:16:41;25.30;86.40
19945;DHT22;10134;50.952;6.930;2023-07-30T15:19:08;25.30;86.60
19945;DHT22;10134;50.952;6.930;2023-07-30T15:21:35;25.40;86.10
19945;DHT22;10134;50.952;6.930;2023-07-30T15:24:04;25.50;85.00
19945;DHT22;10134;50.952;6.930;2023-07-30T15:26:32;25.50;84.20
19945;DHT22;10134;50.952;6.930;2023-07-30T15:29:00;25.50;84.00
19945;DHT22;10134;50.952;6.930;2023-07-30T15:31:28;25.40;83.90
19945;DHT22;10134;50.952;6.930;2023-07-30T15:33:56;25.40;84.20
19945;DHT22;10134;50.952;6.930;2023-07-30T15:36:24;25.40;85.60
19945;DHT22;10134;50.952;6.930;2023-07-30T15:38:51;25.50;85.40